Bakersville, North Carolina
Current Conditions -  °F | °C
As of 8:35 AM on Sunday 23 Nov 2014 (Local Time) from K0A9 Reporting Station
Overcast Overcast  
Wind Chill: 54°   Ceiling: 8000
Heat Index: 54°   Visibility: 10mi
Dew Point: 45°   Wind: 7mph
Humidity: 72%   Direction: 100°E
Pressure: 30.09"   Gusts: NA
Location:  36.02°N, 82.16°W
Report Text: K0A9 231335Z AUTO 10006KT 10SM BKN080 OVC090 12/07 A3009 RMK
Loading
Personal Weather Stations






























Interactive Weather Map New forecast layout! Learn more

10-Day Weather Forecast

Advertisements
Track Severe Weather on mobile